Time;durP1;ratioP1;P1;durP2;ratioP2;P2;SDS_P1;SDS_P2;PMS_P1;PMS_P2;Temp;Humidity;BMP_temperature;BMP_pressure;BME280_temperature;BME280_humidity;BME280_pressure;Samples;Min_cycle;Max_cycle;Signal;HPM_P1;HPM_P2
2023/06/01 00:02:11;;;;;;;12.68;6.20;;;12.30;99.90;;;;;;5083580;28;20061;-62
2023/06/01 00:04:40;;;;;;;15.13;7.28;;;12.20;99.90;;;;;;5049376;28;20397;-62
2023/06/01 00:07:08;;;;;;;14.43;7.13;;;12.30;99.90;;;;;;5085704;28;20549;-62
2023/06/01 00:09:33;;;;;;;14.30;7.10;;;12.30;99.90;;;;;;5055932;28;20040;-62
2023/06/01 00:12:00;;;;;;;19.00;6.60;;;12.30;99.90;;;;;;5066782;28;20051;-62
2023/06/01 00:14:26;;;;;;;16.75;6.72;;;12.20;99.90;;;;;;5066700;28;20558;-62
2023/06/01 00:16:52;;;;;;;16.13;7.07;;;12.20;99.90;;;;;;5070021;28;20076;-62
2023/06/01 00:19:18;;;;;;;15.07;6.68;;;12.20;99.90;;;;;;5058930;28;20391;-61
2023/06/01 00:21:44;;;;;;;12.40;5.72;;;12.20;99.90;;;;;;5053453;28;20085;-62
2023/06/01 00:24:10;;;;;;;15.93;6.25;;;12.10;99.90;;;;;;5061176;28;20059;-61
2023/06/01 00:26:35;;;;;;;13.63;6.53;;;12.10;99.90;;;;;;5067485;28;20071;-61
2023/06/01 00:29:01;;;;;;;12.63;6.70;;;12.10;99.90;;;;;;5051451;28;20395;-62
2023/06/01 00:31:27;;;;;;;14.95;6.43;;;12.00;99.90;;;;;;5052300;28;20043;-61
2023/06/01 00:33:53;;;;;;;18.63;6.47;;;12.00;99.90;;;;;;5069454;28;20127;-61
2023/06/01 00:36:19;;;;;;;15.20;5.82;;;12.00;99.90;;;;;;5061203;28;20134;-61
2023/06/01 00:38:45;;;;;;;12.77;5.45;;;12.00;99.90;;;;;;5052328;28;20368;-61
2023/06/01 00:41:11;;;;;;;11.32;5.00;;;11.90;99.90;;;;;;5054447;28;20043;-61
2023/06/01 00:43:36;;;;;;;13.07;5.10;;;12.00;99.90;;;;;;5081031;28;20041;-61
2023/06/01 00:46:02;;;;;;;11.18;4.95;;;11.90;99.90;;;;;;5065236;28;20032;-61
2023/06/01 00:48:29;;;;;;;12.45;5.60;;;11.90;99.90;;;;;;5060496;28;20036;-61
2023/06/01 00:50:56;;;;;;;11.07;5.78;;;12.00;99.90;;;;;;5068692;28;20506;-62
2023/06/01 00:53:22;;;;;;;10.45;4.70;;;11.90;99.90;;;;;;5067749;28;20044;-61
2023/06/01 00:55:48;;;;;;;13.65;4.93;;;12.00;99.90;;;;;;5052121;28;20392;-61
2023/06/01 00:58:15;;;;;;;14.55;5.43;;;12.00;99.90;;;;;;5052409;28;20040;-62
2023/06/01 01:00:41;;;;;;;13.65;5.50;;;12.00;99.90;;;;;;5049697;28;20101;-61
2023/06/01 01:03:08;;;;;;;15.55;5.40;;;12.00;99.90;;;;;;5070482;28;20040;-61
2023/06/01 01:05:36;;;;;;;14.35;6.38;;;12.00;99.90;;;;;;5054853;28;20376;-61
2023/06/01 01:08:17;;;;;;;9.02;5.22;;;11.90;99.90;;;;;;5072375;28;20082;-62
2023/06/01 01:11:08;;;;;;;14.35;5.53;;;12.00;99.90;;;;;;5059875;28;20051;-61
2023/06/01 01:13:41;;;;;;;11.68;5.20;;;12.00;99.90;;;;;;5069283;28;20483;-61
2023/06/01 01:16:15;;;;;;;17.52;6.15;;;12.00;99.90;;;;;;5055041;28;20044;-61
2023/06/01 01:19:10;;;;;;;14.73;5.85;;;12.00;99.90;;;;;;5071316;28;20032;-62
2023/06/01 01:32:52;;;;;;;15.70;5.82;;;12.00;99.90;;;;;;5068034;28;20044;-62
2023/06/01 01:35:19;;;;;;;15.00;5.97;;;12.00;99.90;;;;;;5068528;28;20044;-61
2023/06/01 01:37:55;;;;;;;13.35;6.03;;;12.00;99.90;;;;;;5069847;28;20040;-62
2023/06/01 01:40:21;;;;;;;13.25;5.75;;;12.00;99.90;;;;;;5068980;28;20121;-61
2023/06/01 01:42:48;;;;;;;19.92;6.32;;;12.10;99.90;;;;;;5066897;28;20032;-61
2023/06/01 01:45:15;;;;;;;11.30;5.85;;;12.10;99.90;;;;;;5070404;28;20063;-61
2023/06/01 01:47:58;;;;;;;18.40;6.63;;;12.10;99.90;;;;;;5072920;28;20047;-61
2023/06/01 01:50:30;;;;;;;15.35;6.18;;;12.10;99.90;;;;;;5053867;28;20040;-61
2023/06/01 01:52:56;;;;;;;15.57;5.78;;;12.00;99.90;;;;;;5087447;28;20047;-61
2023/06/01 01:55:23;;;;;;;13.35;5.35;;;12.00;99.90;;;;;;5088911;28;20075;-61
2023/06/01 01:57:51;;;;;;;15.88;6.00;;;12.00;99.90;;;;;;5070238;28;20048;-61
2023/06/01 02:00:18;;;;;;;12.02;5.07;;;11.90;99.90;;;;;;5046061;28;20047;-61
2023/06/01 02:13:58;;;;;;;17.02;6.75;;;11.80;99.90;;;;;;5087150;28;20040;-61
2023/06/01 02:16:24;;;;;;;14.48;5.82;;;11.80;99.90;;;;;;5072819;28;20602;-61
2023/06/01 02:18:50;;;;;;;12.07;5.50;;;11.80;99.90;;;;;;5070387;28;21521;-61
2023/06/01 02:21:15;;;;;;;16.65;6.53;;;11.80;99.90;;;;;;5063013;28;20443;-62
2023/06/01 02:23:44;;;;;;;13.45;4.95;;;11.80;99.90;;;;;;5053435;28;20093;-61
2023/06/01 02:26:10;;;;;;;12.73;5.22;;;11.80;99.90;;;;;;5048013;28;20076;-61
2023/06/01 02:28:38;;;;;;;10.70;5.35;;;11.80;99.90;;;;;;5070156;28;20039;-62
2023/06/01 02:31:05;;;;;;;11.00;5.05;;;11.90;99.90;;;;;;5068636;28;20047;-61
2023/06/01 02:33:33;;;;;;;13.40;5.35;;;11.90;99.90;;;;;;5072906;28;20051;-61
2023/06/01 02:35:59;;;;;;;10.82;5.18;;;11.90;99.90;;;;;;5083877;28;20032;-62
2023/06/01 02:49:39;;;;;;;10.30;4.72;;;11.90;99.90;;;;;;5086153;28;20039;-61
2023/06/01 02:52:05;;;;;;;10.25;5.13;;;11.90;99.90;;;;;;5061633;28;20089;-62
2023/06/01 02:54:31;;;;;;;9.90;5.05;;;12.00;99.90;;;;;;5072160;28;20035;-62
2023/06/01 02:56:57;;;;;;;9.15;5.32;;;12.00;99.90;;;;;;5070412;28;20131;-62
2023/06/01 02:59:22;;;;;;;8.85;4.70;;;12.00;99.90;;;;;;5036790;28;20044;-62
2023/06/01 03:01:48;;;;;;;11.90;4.28;;;12.00;99.90;;;;;;5064967;28;20036;-62
2023/06/01 03:04:14;;;;;;;10.95;4.43;;;12.00;99.90;;;;;;5048922;28;20068;-61
2023/06/01 03:06:40;;;;;;;8.63;4.07;;;12.00;99.90;;;;;;5069736;28;20386;-62
2023/06/01 03:09:12;;;;;;;8.95;4.43;;;12.00;99.90;;;;;;5052673;28;20444;-62
2023/06/01 03:11:42;;;;;;;9.85;4.03;;;12.00;99.90;;;;;;5070177;28;20598;-61
2023/06/01 03:14:08;;;;;;;13.07;4.13;;;12.00;99.90;;;;;;5063338;28;20047;-60
2023/06/01 03:16:34;;;;;;;9.55;3.45;;;12.00;99.90;;;;;;5086887;28;20028;-62
2023/06/01 03:19:00;;;;;;;7.72;3.72;;;11.90;99.90;;;;;;5068843;28;20187;-62
2023/06/01 03:21:27;;;;;;;7.10;3.65;;;12.00;99.90;;;;;;5040517;28;20061;-61
2023/06/01 03:23:53;;;;;;;8.27;3.25;;;12.00;99.90;;;;;;5068549;28;20093;-62
2023/06/01 03:26:20;;;;;;;8.93;3.35;;;12.00;99.90;;;;;;5050420;28;20126;-62
2023/06/01 03:28:47;;;;;;;7.30;3.65;;;12.00;99.90;;;;;;5052900;28;20048;-62
2023/06/01 03:31:13;;;;;;;10.10;4.32;;;12.00;99.90;;;;;;5064795;28;20044;-62
2023/06/01 03:33:39;;;;;;;10.27;4.38;;;11.90;99.90;;;;;;5069326;28;20119;-61
2023/06/01 03:36:06;;;;;;;10.98;4.15;;;12.00;99.90;;;;;;5053099;28;20059;-61
2023/06/01 03:38:33;;;;;;;7.55;3.35;;;12.00;99.90;;;;;;5053187;28;20036;-61
2023/06/01 03:41:00;;;;;;;7.72;3.45;;;12.00;99.90;;;;;;5072144;28;20043;-61
2023/06/01 03:43:26;;;;;;;9.38;3.63;;;12.00;99.90;;;;;;5059149;28;20044;-61
2023/06/01 03:45:52;;;;;;;8.43;3.70;;;12.00;99.90;;;;;;5061450;28;20299;-61
2023/06/01 03:48:18;;;;;;;8.40;3.75;;;12.00;99.90;;;;;;5068652;28;20040;-61
2023/06/01 03:50:43;;;;;;;10.57;4.00;;;12.00;99.90;;;;;;5052529;28;20510;-62
2023/06/01 03:53:09;;;;;;;8.93;3.95;;;12.00;99.90;;;;;;5067353;28;20119;-61
2023/06/01 03:55:35;;;;;;;10.52;4.03;;;12.00;99.90;;;;;;5066252;28;20063;-62
2023/06/01 03:58:02;;;;;;;8.63;3.75;;;12.00;99.90;;;;;;5024925;28;20040;-61
2023/06/01 04:00:28;;;;;;;10.88;3.53;;;12.00;99.90;;;;;;5068612;28;20111;-61
2023/06/01 04:02:56;;;;;;;9.10;3.83;;;12.00;99.90;;;;;;5064615;28;20404;-62
2023/06/01 04:05:24;;;;;;;9.70;4.10;;;12.00;99.90;;;;;;5067228;28;20255;-61
2023/06/01 04:07:52;;;;;;;10.98;4.15;;;12.00;99.90;;;;;;5050614;28;20080;-62
2023/06/01 04:10:18;;;;;;;15.07;4.63;;;12.00;99.90;;;;;;5068503;28;20379;-61
2023/06/01 04:12:46;;;;;;;8.65;3.90;;;12.00;99.90;;;;;;5052061;28;20040;-62
2023/06/01 04:15:13;;;;;;;7.93;3.75;;;12.00;99.90;;;;;;5065239;28;20077;-62
2023/06/01 04:17:40;;;;;;;9.07;3.80;;;12.00;99.90;;;;;;5068179;28;20036;-62
2023/06/01 04:20:10;;;;;;;13.60;4.38;;;12.00;99.90;;;;;;5060314;28;20596;-61
2023/06/01 04:22:36;;;;;;;11.07;4.05;;;12.00;99.90;;;;;;5066066;28;20125;-62
2023/06/01 04:25:05;;;;;;;12.48;3.88;;;12.00;99.90;;;;;;5035617;28;20484;-62
2023/06/01 04:27:31;;;;;;;10.90;3.80;;;12.00;99.90;;;;;;5069828;28;20051;-61
2023/06/01 04:29:58;;;;;;;9.05;4.35;;;12.00;99.90;;;;;;5069381;28;20040;-61
2023/06/01 04:32:25;;;;;;;9.05;4.32;;;12.00;99.90;;;;;;5051825;28;20044;-61
2023/06/01 04:34:50;;;;;;;9.98;3.25;;;12.00;99.90;;;;;;5063787;28;20472;-62
2023/06/01 04:37:20;;;;;;;7.90;3.80;;;12.00;99.90;;;;;;5075039;28;20127;-62
2023/06/01 04:39:51;;;;;;;11.30;3.90;;;12.00;99.90;;;;;;5073115;28;20032;-62
2023/06/01 04:42:18;;;;;;;8.05;3.40;;;12.00;99.90;;;;;;5071382;28;20097;-61
2023/06/01 04:44:51;;;;;;;12.23;4.00;;;12.10;99.90;;;;;;5067818;28;20036;-61
2023/06/01 04:47:17;;;;;;;7.45;3.17;;;12.00;99.90;;;;;;5070866;28;20055;-61
2023/06/01 04:49:43;;;;;;;11.73;4.60;;;12.10;99.90;;;;;;5048618;28;20040;-61
2023/06/01 04:52:12;;;;;;;10.10;3.90;;;12.00;99.90;;;;;;5065400;28;20415;-62
2023/06/01 04:54:38;;;;;;;9.98;4.38;;;12.00;99.90;;;;;;5068696;28;20039;-61
2023/06/01 04:57:06;;;;;;;7.90;3.95;;;12.00;99.90;;;;;;5057298;28;20035;-61
2023/06/01 04:59:32;;;;;;;10.05;3.97;;;12.00;99.90;;;;;;5079889;28;20040;-61
2023/06/01 05:01:59;;;;;;;7.38;3.88;;;12.00;99.90;;;;;;5054089;28;20497;-59
2023/06/01 05:04:25;;;;;;;14.52;4.65;;;12.10;99.90;;;;;;5073021;28;20477;-62
2023/06/01 05:06:53;;;;;;;10.48;3.58;;;12.10;99.90;;;;;;5082510;28;20479;-61
2023/06/01 05:09:19;;;;;;;9.30;3.90;;;12.10;99.90;;;;;;5071018;28;20047;-61
2023/06/01 05:11:45;;;;;;;7.90;3.40;;;12.10;99.90;;;;;;5072255;28;20046;-61
2023/06/01 05:14:10;;;;;;;10.60;4.15;;;12.10;99.90;;;;;;5055696;28;20036;-61
2023/06/01 05:16:36;;;;;;;12.98;3.90;;;12.10;99.90;;;;;;5063541;28;20530;-61
2023/06/01 05:19:02;;;;;;;16.25;5.35;;;12.10;99.90;;;;;;5069716;28;20032;-62
2023/06/01 05:21:27;;;;;;;10.10;3.88;;;12.20;99.90;;;;;;5069113;28;20050;-61
2023/06/01 05:23:53;;;;;;;11.27;3.97;;;12.20;99.90;;;;;;5072369;28;20123;-61
2023/06/01 05:26:22;;;;;;;11.15;4.20;;;12.20;99.90;;;;;;5071168;28;20078;-61
2023/06/01 05:28:47;;;;;;;9.55;4.13;;;12.20;99.90;;;;;;5072251;28;20047;-61
2023/06/01 05:31:13;;;;;;;11.35;3.58;;;12.20;99.90;;;;;;5071822;28;20038;-62
2023/06/01 05:33:39;;;;;;;10.82;3.85;;;12.20;99.90;;;;;;5043104;28;20070;-61
2023/06/01 05:36:05;;;;;;;9.45;3.88;;;12.20;99.90;;;;;;5078104;28;20063;-62
2023/06/01 05:38:30;;;;;;;9.23;3.25;;;12.20;99.90;;;;;;5071538;28;20093;-61
2023/06/01 05:40:56;;;;;;;10.30;5.45;;;12.20;99.90;;;;;;5074489;28;20039;-61
2023/06/01 05:43:22;;;;;;;9.82;3.90;;;12.30;99.90;;;;;;5052446;28;20040;-61
2023/06/01 05:45:48;;;;;;;9.32;3.42;;;12.30;99.90;;;;;;5054168;28;20054;-61
2023/06/01 05:48:14;;;;;;;10.80;3.72;;;12.30;99.90;;;;;;5052266;28;20040;-61
2023/06/01 05:50:41;;;;;;;10.35;4.45;;;12.40;99.90;;;;;;5069991;28;20086;-62
2023/06/01 05:53:08;;;;;;;9.68;3.80;;;12.40;99.90;;;;;;5069432;28;20059;-62
2023/06/01 05:55:34;;;;;;;12.27;3.92;;;12.40;99.90;;;;;;5070808;28;20028;-62
2023/06/01 05:57:59;;;;;;;14.07;4.38;;;12.40;99.90;;;;;;5070892;28;20036;-62
2023/06/01 06:00:25;;;;;;;8.88;3.55;;;12.40;99.90;;;;;;5071579;28;20067;-61
2023/06/01 06:02:51;;;;;;;11.55;3.90;;;12.40;99.90;;;;;;5064398;28;20033;-61
2023/06/01 06:16:31;;;;;;;8.07;3.30;;;12.40;99.90;;;;;;5079066;28;20411;-62
2023/06/01 06:18:56;;;;;;;9.40;4.18;;;12.40;99.90;;;;;;5066147;28;20062;-62
2023/06/01 06:21:23;;;;;;;9.70;3.72;;;12.40;99.90;;;;;;5040864;28;20042;-62
2023/06/01 06:23:49;;;;;;;6.25;3.05;;;12.40;99.90;;;;;;5051287;28;20043;-61
2023/06/01 06:26:15;;;;;;;11.30;3.65;;;12.40;99.90;;;;;;5066745;28;20122;-62
2023/06/01 06:28:41;;;;;;;10.23;3.97;;;12.40;99.90;;;;;;5050229;28;20119;-61
2023/06/01 06:42:21;;;;;;;6.38;3.10;;;12.60;99.90;;;;;;5050866;28;20101;-61
2023/06/01 06:44:46;;;;;;;8.00;3.17;;;12.60;99.90;;;;;;5063472;28;20052;-62
2023/06/01 06:47:15;;;;;;;8.40;3.30;;;12.60;99.90;;;;;;5062231;28;20033;-62
2023/06/01 06:49:41;;;;;;;8.45;3.10;;;12.60;99.90;;;;;;5061150;28;20028;-62
2023/06/01 06:52:09;;;;;;;10.32;4.18;;;12.50;99.90;;;;;;5068323;28;20066;-61
2023/06/01 06:54:35;;;;;;;17.23;3.60;;;12.60;99.90;;;;;;5057943;28;20048;-63
2023/06/01 06:57:02;;;;;;;10.57;3.60;;;12.50;99.90;;;;;;5063511;28;20116;-61
2023/06/01 06:59:28;;;;;;;6.80;3.10;;;12.50;99.90;;;;;;5067870;28;20139;-62
2023/06/01 07:01:54;;;;;;;10.55;3.65;;;12.60;99.90;;;;;;5061160;28;20366;-62
2023/06/01 07:04:20;;;;;;;4.57;2.10;;;12.60;99.90;;;;;;5055568;28;20047;-61
2023/06/01 07:06:46;;;;;;;5.95;2.28;;;12.60;99.90;;;;;;5079509;28;20040;-61
2023/06/01 07:09:14;;;;;;;5.50;2.35;;;12.60;99.90;;;;;;5068052;28;20047;-62
2023/06/01 07:11:44;;;;;;;6.28;2.08;;;12.60;99.90;;;;;;5061421;28;20040;-61
2023/06/01 07:14:11;;;;;;;5.32;2.25;;;12.70;99.90;;;;;;5058722;28;20044;-61
2023/06/01 07:16:36;;;;;;;4.57;2.45;;;12.70;99.90;;;;;;5059005;28;20056;-62
2023/06/01 07:19:02;;;;;;;4.60;2.22;;;12.80;99.90;;;;;;5062078;28;20487;-62
2023/06/01 07:32:43;;;;;;;4.50;1.75;;;12.80;99.90;;;;;;5083038;28;20028;-61
2023/06/01 07:35:09;;;;;;;7.50;2.72;;;12.80;99.90;;;;;;5064183;28;20039;-61
2023/06/01 07:37:35;;;;;;;3.50;1.75;;;12.70;99.90;;;;;;5064056;28;20043;-61
2023/06/01 07:40:02;;;;;;;5.13;1.95;;;12.70;99.90;;;;;;5051280;28;20032;-61
2023/06/01 07:42:28;;;;;;;3.92;2.03;;;12.70;99.90;;;;;;5066674;28;20505;-61
2023/06/01 07:44:56;;;;;;;5.65;2.55;;;12.70;99.90;;;;;;5064978;28;20040;-62
2023/06/01 07:47:24;;;;;;;5.95;2.85;;;12.70;99.90;;;;;;5061197;28;20305;-62
2023/06/01 07:49:51;;;;;;;8.30;2.50;;;12.70;99.90;;;;;;5066298;28;20050;-62
2023/06/01 07:52:17;;;;;;;8.75;2.80;;;12.70;99.90;;;;;;5035167;28;20252;-61
2023/06/01 07:54:43;;;;;;;7.38;3.38;;;12.70;99.90;;;;;;5064170;28;20039;-62
2023/06/01 07:57:09;;;;;;;7.00;2.50;;;12.70;99.90;;;;;;5065430;28;20031;-61
2023/06/01 07:59:34;;;;;;;7.70;2.30;;;12.70;99.90;;;;;;5061533;28;20391;-62
2023/06/01 08:02:00;;;;;;;5.55;2.58;;;12.70;99.90;;;;;;5058953;28;20475;-62
2023/06/01 08:04:27;;;;;;;10.82;3.00;;;12.80;99.90;;;;;;5066970;28;20503;-61
2023/06/01 08:06:53;;;;;;;6.68;2.45;;;12.80;99.90;;;;;;5053164;28;20043;-62
2023/06/01 08:09:23;;;;;;;5.95;2.75;;;12.80;99.90;;;;;;5068261;28;20072;-62
2023/06/01 08:11:50;;;;;;;10.98;3.83;;;12.80;99.90;;;;;;5069424;28;20044;-61
2023/06/01 08:14:16;;;;;;;11.70;3.28;;;12.80;99.90;;;;;;5067165;28;20396;-62
2023/06/01 08:16:43;;;;;;;10.18;3.33;;;12.70;99.90;;;;;;5049291;28;20055;-61
2023/06/01 08:19:08;;;;;;;7.28;4.10;;;12.70;99.90;;;;;;5050978;28;20271;-61
2023/06/01 08:21:37;;;;;;;9.07;3.35;;;12.70;99.90;;;;;;5059021;28;20043;-62
2023/06/01 08:24:03;;;;;;;10.15;3.25;;;12.60;99.90;;;;;;5064313;28;20040;-61
2023/06/01 08:26:29;;;;;;;9.20;3.28;;;12.60;99.90;;;;;;5062559;28;20040;-62
2023/06/01 08:28:55;;;;;;;7.50;3.45;;;12.60;99.90;;;;;;5062925;28;20056;-62
2023/06/01 08:31:22;;;;;;;13.75;3.65;;;12.70;99.90;;;;;;5046715;28;20655;-62
2023/06/01 08:33:50;;;;;;;13.02;3.92;;;12.70;99.90;;;;;;5061925;28;20129;-61
2023/06/01 08:36:18;;;;;;;8.77;3.97;;;12.70;99.90;;;;;;5063984;28;20056;-61
2023/06/01 08:38:44;;;;;;;13.05;3.65;;;12.70;99.90;;;;;;5064802;28;20042;-61
2023/06/01 08:41:44;;;;;;;15.75;4.07;;;12.80;99.90;;;;;;5064579;28;20123;-62
2023/06/01 08:44:11;;;;;;;13.60;4.13;;;12.80;99.90;;;;;;5064135;28;20097;-61
2023/06/01 08:46:41;;;;;;;13.63;3.92;;;12.80;99.90;;;;;;5041976;28;20044;-62
2023/06/01 08:49:09;;;;;;;9.60;3.53;;;12.80;99.90;;;;;;5067922;28;20459;-61
2023/06/01 08:51:39;;;;;;;12.85;3.70;;;12.80;99.90;;;;;;5070789;28;20048;-62
2023/06/01 08:54:08;;;;;;;12.50;3.92;;;12.90;99.90;;;;;;5067700;28;20040;-62
2023/06/01 08:56:34;;;;;;;10.23;3.50;;;13.00;99.90;;;;;;5045534;28;20043;-61
2023/06/01 09:10:14;;;;;;;16.08;3.35;;;13.10;99.90;;;;;;5081541;28;20046;-62
2023/06/01 09:12:51;;;;;;;9.88;3.70;;;13.10;99.90;;;;;;5070552;28;20032;-61
2023/06/01 09:15:18;;;;;;;14.57;3.20;;;13.10;99.90;;;;;;5069496;28;20063;-63
2023/06/01 09:17:52;;;;;;;11.93;3.50;;;13.10;99.90;;;;;;5066150;28;20407;-62
2023/06/01 09:20:28;;;;;;;18.38;3.75;;;13.10;99.90;;;;;;5058825;28;20074;-62
2023/06/01 09:22:55;;;;;;;10.40;3.17;;;13.10;99.90;;;;;;5067014;28;20431;-63
2023/06/01 09:25:41;;;;;;;12.80;3.08;;;13.20;99.90;;;;;;5056137;28;20070;-61
2023/06/01 09:28:06;;;;;;;12.95;3.58;;;13.10;99.90;;;;;;5050789;28;20052;-62
2023/06/01 09:30:46;;;;;;;14.90;3.30;;;13.20;99.90;;;;;;5069995;28;20105;-61
2023/06/01 09:33:14;;;;;;;11.38;3.20;;;13.20;99.90;;;;;;5070342;28;20399;-62
2023/06/01 09:35:45;;;;;;;17.88;4.03;;;13.20;99.90;;;;;;5066166;28;20314;-61
2023/06/01 09:38:11;;;;;;;15.88;4.38;;;13.20;99.90;;;;;;5076564;28;20036;-62
2023/06/01 09:40:39;;;;;;;8.75;3.22;;;13.20;99.90;;;;;;5064796;28;20048;-61
2023/06/01 09:43:21;;;;;;;11.45;3.05;;;13.30;99.90;;;;;;5058667;28;20040;-62
2023/06/01 09:46:03;;;;;;;9.13;3.25;;;13.30;99.90;;;;;;5055632;28;20427;-61
2023/06/01 09:48:29;;;;;;;9.52;2.63;;;13.40;99.90;;;;;;5059099;28;20483;-61
2023/06/01 09:50:55;;;;;;;10.77;3.42;;;13.40;99.90;;;;;;5049260;28;20124;-62
2023/06/01 09:53:20;;;;;;;10.25;3.13;;;13.50;99.90;;;;;;5053909;28;20122;-61
2023/06/01 09:56:06;;;;;;;9.90;3.33;;;13.60;99.90;;;;;;5069484;28;20513;-62
2023/06/01 09:58:39;;;;;;;13.07;2.97;;;13.60;99.90;;;;;;5047721;28;20040;-62
2023/06/01 10:01:08;;;;;;;5.45;2.70;;;13.60;99.90;;;;;;5085275;28;20383;-62
2023/06/01 10:03:35;;;;;;;12.80;3.15;;;13.60;99.90;;;;;;5049328;28;20036;-62
2023/06/01 10:06:02;;;;;;;12.63;3.10;;;13.50;99.90;;;;;;5061304;28;20094;-61
2023/06/01 10:08:29;;;;;;;13.63;3.35;;;13.50;99.90;;;;;;5060315;28;20527;-61
2023/06/01 10:10:55;;;;;;;10.75;3.03;;;13.60;99.90;;;;;;5068034;28;20070;-62
2023/06/01 10:13:22;;;;;;;8.48;3.10;;;13.60;99.90;;;;;;5067809;28;20075;-62
2023/06/01 10:15:48;;;;;;;12.23;4.65;;;13.70;99.90;;;;;;5070409;28;20399;-62
2023/06/01 10:18:18;;;;;;;11.52;4.28;;;13.80;99.90;;;;;;5044196;28;20071;-62
2023/06/01 10:20:43;;;;;;;13.38;4.18;;;13.80;99.90;;;;;;5052737;28;20032;-62
2023/06/01 10:23:09;;;;;;;14.68;3.63;;;13.80;99.90;;;;;;5065899;28;20032;-60
2023/06/01 10:25:48;;;;;;;10.88;4.05;;;13.70;99.90;;;;;;5045540;28;20048;-62
2023/06/01 10:28:15;;;;;;;8.80;2.70;;;13.70;99.90;;;;;;5072486;28;20040;-62
2023/06/01 10:30:40;;;;;;;11.35;3.78;;;13.70;99.90;;;;;;5088610;28;20047;-62
2023/06/01 10:33:06;;;;;;;10.32;3.10;;;13.70;99.90;;;;;;5046229;28;20035;-62
2023/06/01 10:35:41;;;;;;;8.30;3.10;;;13.70;99.90;;;;;;5052790;28;20122;-62
2023/06/01 10:38:07;;;;;;;11.55;4.57;;;13.70;99.90;;;;;;5044977;28;20071;-62
2023/06/01 10:40:43;;;;;;;11.73;3.42;;;13.80;99.90;;;;;;5050287;28;20093;-62
2023/06/01 10:43:40;;;;;;;8.20;3.08;;;13.80;99.90;;;;;;5061829;28;20063;-62
2023/06/01 10:46:37;;;;;;;15.13;4.63;;;14.00;99.90;;;;;;5066626;28;20048;-61
2023/06/01 10:49:04;;;;;;;8.45;3.28;;;14.10;99.90;;;;;;5064576;28;20050;-62
2023/06/01 10:51:30;;;;;;;7.57;2.95;;;14.10;99.90;;;;;;5069087;28;20048;-62
2023/06/01 10:54:26;;;;;;;11.48;3.30;;;14.10;99.90;;;;;;5068712;28;20632;-62
2023/06/01 10:57:22;;;;;;;10.00;3.15;;;14.00;99.90;;;;;;5059380;28;20048;-62
2023/06/01 11:00:14;;;;;;;9.48;2.97;;;14.00;99.90;;;;;;5052865;28;20028;-61
2023/06/01 11:02:59;;;;;;;8.38;2.35;;;14.00;99.90;;;;;;5044253;28;20086;-62
2023/06/01 11:05:47;;;;;;;8.38;3.25;;;14.00;99.90;;;;;;5050749;28;20040;-62
2023/06/01 11:08:19;;;;;;;8.10;2.78;;;14.00;99.90;;;;;;5061020;28;20462;-62
2023/06/01 11:10:53;;;;;;;6.20;2.20;;;14.20;99.90;;;;;;5067385;28;20126;-61
2023/06/01 11:13:25;;;;;;;7.72;2.40;;;14.20;99.90;;;;;;5064609;28;20427;-62
2023/06/01 11:16:22;;;;;;;10.10;3.00;;;14.20;99.90;;;;;;5062985;28;20028;-61
2023/06/01 11:18:58;;;;;;;8.57;2.67;;;14.30;99.90;;;;;;5063935;28;20352;-62
2023/06/01 11:21:30;;;;;;;7.95;3.15;;;14.20;99.90;;;;;;5032472;28;20226;-61
2023/06/01 11:24:01;;;;;;;7.55;3.08;;;14.20;99.90;;;;;;5066421;28;20085;-62
2023/06/01 11:26:32;;;;;;;8.75;2.88;;;14.20;99.90;;;;;;5056547;28;20348;-61
2023/06/01 11:29:12;;;;;;;6.85;2.70;;;14.20;99.90;;;;;;5059036;28;20509;-62
2023/06/01 11:31:43;;;;;;;11.25;2.95;;;14.20;99.90;;;;;;5067047;28;20031;-62
2023/06/01 11:34:11;;;;;;;11.10;3.08;;;14.30;99.90;;;;;;5067450;28;20065;-62
2023/06/01 11:36:48;;;;;;;8.18;3.08;;;14.20;99.90;;;;;;5070834;28;20049;-62
2023/06/01 11:39:24;;;;;;;9.68;3.00;;;14.10;99.90;;;;;;5065110;28;20048;-62
2023/06/01 11:41:52;;;;;;;8.88;2.97;;;14.10;99.90;;;;;;5060868;28;20498;-61
2023/06/01 11:44:18;;;;;;;10.07;2.72;;;14.10;99.90;;;;;;5061073;28;20052;-62
2023/06/01 11:46:55;;;;;;;6.78;2.60;;;14.10;99.90;;;;;;5048072;28;20046;-61
2023/06/01 11:49:22;;;;;;;7.47;2.45;;;14.20;99.90;;;;;;5069226;28;20046;-61
2023/06/01 11:51:48;;;;;;;4.07;2.00;;;14.20;99.90;;;;;;5072798;28;20481;-62
2023/06/01 11:54:14;;;;;;;8.13;2.85;;;14.30;99.90;;;;;;5070393;28;20050;-62
2023/06/01 11:56:43;;;;;;;9.00;2.78;;;14.40;99.90;;;;;;5064332;28;20036;-61
2023/06/01 11:59:12;;;;;;;7.63;2.70;;;14.30;99.90;;;;;;5062034;28;20407;-61
2023/06/01 12:01:49;;;;;;;6.25;2.67;;;14.20;99.90;;;;;;5027633;28;20036;-62
2023/06/01 12:04:23;;;;;;;7.38;3.10;;;14.20;99.90;;;;;;5049817;28;20035;-62
2023/06/01 12:06:51;;;;;;;9.25;3.38;;;14.30;99.90;;;;;;5067038;28;20119;-62
2023/06/01 12:09:17;;;;;;;10.45;3.15;;;14.30;99.90;;;;;;5058928;28;20123;-62
2023/06/01 12:11:44;;;;;;;11.38;3.30;;;14.30;99.90;;;;;;5057363;28;20109;-61
2023/06/01 12:14:14;;;;;;;11.10;3.05;;;14.20;99.90;;;;;;5063224;28;20044;-62
2023/06/01 12:17:04;;;;;;;10.20;3.58;;;14.10;99.90;;;;;;5050620;28;20048;-62
2023/06/01 12:19:31;;;;;;;13.77;4.13;;;14.10;99.90;;;;;;5049422;28;20039;-61
2023/06/01 12:33:05;;;;;;;9.85;3.40;;;13.90;99.90;;;;;;5061381;28;20046;-62
2023/06/01 12:35:31;;;;;;;9.50;4.07;;;13.80;99.90;;;;;;5051353;28;20422;-61
2023/06/01 12:38:05;;;;;;;9.48;3.75;;;13.80;99.90;;;;;;5065657;28;20059;-62
2023/06/01 12:40:31;;;;;;;10.30;3.42;;;13.90;99.90;;;;;;5052372;28;20042;-62
2023/06/01 12:42:57;;;;;;;9.80;3.40;;;13.90;99.90;;;;;;5049642;28;20036;-62
2023/06/01 12:45:23;;;;;;;11.68;3.25;;;13.80;99.90;;;;;;5067304;28;20043;-61
2023/06/01 12:47:48;;;;;;;9.13;3.92;;;13.90;99.90;;;;;;5046160;28;20044;-62
2023/06/01 12:50:14;;;;;;;11.90;3.40;;;13.90;99.90;;;;;;5054162;28;20077;-62
2023/06/01 12:52:44;;;;;;;11.52;3.60;;;13.90;99.90;;;;;;5077545;28;20047;-62
2023/06/01 12:55:10;;;;;;;11.85;4.07;;;13.90;99.90;;;;;;5064072;28;20032;-61
2023/06/01 12:57:40;;;;;;;11.05;3.65;;;13.80;99.90;;;;;;5035771;28;20050;-62
2023/06/01 13:00:06;;;;;;;13.05;3.40;;;13.80;99.90;;;;;;5070117;28;20123;-62
2023/06/01 13:02:33;;;;;;;10.63;3.10;;;13.70;99.90;;;;;;5050259;28;20035;-62
2023/06/01 13:04:59;;;;;;;10.23;3.20;;;13.70;99.90;;;;;;5066035;28;20044;-62
2023/06/01 13:07:25;;;;;;;10.73;2.90;;;13.70;99.90;;;;;;5051541;28;20059;-61
2023/06/01 13:09:51;;;;;;;8.73;3.00;;;13.70;99.90;;;;;;5069633;28;20061;-62
2023/06/01 13:12:17;;;;;;;14.75;4.35;;;13.80;99.90;;;;;;5085799;28;20387;-61
2023/06/01 13:14:43;;;;;;;10.77;4.20;;;13.70;99.90;;;;;;5090097;28;20024;-61
2023/06/01 13:17:09;;;;;;;14.18;3.83;;;13.60;99.90;;;;;;5065155;28;20039;-62
2023/06/01 13:19:34;;;;;;;11.55;4.03;;;13.60;99.90;;;;;;5049290;28;20545;-62
2023/06/01 13:22:00;;;;;;;13.73;3.67;;;13.70;99.90;;;;;;5069655;28;20053;-62
2023/06/01 13:24:26;;;;;;;9.57;3.45;;;13.70;99.90;;;;;;5042519;28;20048;-62
2023/06/01 13:26:54;;;;;;;8.82;3.53;;;13.80;99.90;;;;;;5049027;28;20047;-62
2023/06/01 13:29:20;;;;;;;6.85;3.38;;;13.90;99.90;;;;;;5046876;28;20089;-61
2023/06/01 13:31:46;;;;;;;8.23;3.10;;;13.90;99.90;;;;;;5063334;28;20039;-62
2023/06/01 13:34:12;;;;;;;8.20;2.60;;;13.90;99.90;;;;;;5045728;28;20036;-62
2023/06/01 13:36:37;;;;;;;11.13;2.92;;;13.90;99.90;;;;;;5050113;28;20048;-62
2023/06/01 13:39:04;;;;;;;9.57;2.60;;;13.90;99.90;;;;;;5081218;28;20028;-62
2023/06/01 13:41:30;;;;;;;9.20;3.10;;;13.90;99.90;;;;;;5067122;28;20036;-62
2023/06/01 13:43:55;;;;;;;9.18;2.55;;;13.90;99.90;;;;;;5070527;28;20192;-63
2023/06/01 13:46:24;;;;;;;9.82;2.30;;;14.00;99.90;;;;;;5047853;28;20075;-61
2023/06/01 13:48:50;;;;;;;6.75;2.50;;;13.90;99.90;;;;;;5066178;28;20040;-62
2023/06/01 13:51:16;;;;;;;6.68;3.30;;;13.90;99.90;;;;;;5082682;28;20040;-62
2023/06/01 13:53:42;;;;;;;6.50;2.05;;;14.10;99.90;;;;;;5060537;28;20058;-62
2023/06/01 13:56:08;;;;;;;4.55;1.90;;;14.10;99.90;;;;;;5064778;28;20040;-61
2023/06/01 13:58:34;;;;;;;5.28;1.80;;;14.10;99.90;;;;;;5058545;28;20514;-61
2023/06/01 14:01:00;;;;;;;5.70;2.00;;;14.10;99.90;;;;;;5064407;28;20031;-62
2023/06/01 14:03:25;;;;;;;6.35;2.45;;;14.10;99.90;;;;;;5061937;28;20047;-61
2023/06/01 14:05:51;;;;;;;5.93;2.05;;;14.10;99.90;;;;;;5062457;28;20571;-61
2023/06/01 14:08:17;;;;;;;4.80;1.90;;;14.20;99.90;;;;;;5062483;28;20048;-62
2023/06/01 14:10:46;;;;;;;5.40;2.20;;;14.20;99.90;;;;;;5073262;28;20043;-62
2023/06/01 14:13:11;;;;;;;9.50;2.67;;;14.20;99.90;;;;;;5067983;28;20498;-61
2023/06/01 14:15:37;;;;;;;8.00;2.35;;;14.20;99.90;;;;;;5067851;28;20101;-62
2023/06/01 14:18:03;;;;;;;6.28;2.05;;;14.20;99.90;;;;;;5050734;28;20047;-62